sensor_id;sensor_type;location;lat;lon;timestamp;P1;durP1;ratioP1;P2;durP2;ratioP2
49842;SDS011;55559;48.898;9.184;2022-07-05T00:00:31;7.85;;;0.65;;
49842;SDS011;55559;48.898;9.184;2022-07-05T00:02:58;4.82;;;0.55;;
49842;SDS011;55559;48.898;9.184;2022-07-05T00:05:25;4.80;;;0.70;;
49842;SDS011;55559;48.898;9.184;2022-07-05T00:07:53;3.67;;;0.70;;
49842;SDS011;55559;48.898;9.184;2022-07-05T00:10:21;5.30;;;0.80;;
49842;SDS011;55559;48.898;9.184;2022-07-05T00:12:48;7.07;;;0.70;;
49842;SDS011;55559;48.898;9.184;2022-07-05T00:15:15;6.95;;;0.75;;
49842;SDS011;55559;48.898;9.184;2022-07-05T00:17:45;4.97;;;0.70;;
49842;SDS011;55559;48.898;9.184;2022-07-05T00:20:12;6.60;;;0.70;;
49842;SDS011;55559;48.898;9.184;2022-07-05T00:22:41;5.13;;;0.70;;
49842;SDS011;55559;48.898;9.184;2022-07-05T00:25:09;3.30;;;0.60;;
49842;SDS011;55559;48.898;9.184;2022-07-05T00:27:36;5.97;;;0.70;;
49842;SDS011;55559;48.898;9.184;2022-07-05T00:30:04;2.85;;;0.68;;
49842;SDS011;55559;48.898;9.184;2022-07-05T00:32:32;6.22;;;0.70;;
49842;SDS011;55559;48.898;9.184;2022-07-05T00:35:01;5.13;;;0.70;;
49842;SDS011;55559;48.898;9.184;2022-07-05T00:37:29;5.00;;;0.60;;
49842;SDS011;55559;48.898;9.184;2022-07-05T00:39:57;6.38;;;0.70;;
49842;SDS011;55559;48.898;9.184;2022-07-05T00:42:24;3.88;;;0.60;;
49842;SDS011;55559;48.898;9.184;2022-07-05T00:44:51;3.90;;;0.60;;
49842;SDS011;55559;48.898;9.184;2022-07-05T00:47:19;5.43;;;0.85;;
49842;SDS011;55559;48.898;9.184;2022-07-05T00:49:47;4.07;;;0.80;;
49842;SDS011;55559;48.898;9.184;2022-07-05T00:52:16;5.55;;;0.52;;
49842;SDS011;55559;48.898;9.184;2022-07-05T00:54:44;4.80;;;0.80;;
49842;SDS011;55559;48.898;9.184;2022-07-05T00:57:11;8.38;;;0.68;;
49842;SDS011;55559;48.898;9.184;2022-07-05T00:59:38;4.80;;;0.70;;
49842;SDS011;55559;48.898;9.184;2022-07-05T01:02:06;3.50;;;0.80;;
49842;SDS011;55559;48.898;9.184;2022-07-05T01:04:33;3.60;;;0.90;;
49842;SDS011;55559;48.898;9.184;2022-07-05T01:07:01;3.00;;;0.70;;
49842;SDS011;55559;48.898;9.184;2022-07-05T01:09:32;4.35;;;1.45;;
49842;SDS011;55559;48.898;9.184;2022-07-05T01:12:01;3.08;;;0.80;;
49842;SDS011;55559;48.898;9.184;2022-07-05T01:14:29;8.50;;;0.70;;
49842;SDS011;55559;48.898;9.184;2022-07-05T01:16:57;4.65;;;0.75;;
49842;SDS011;55559;48.898;9.184;2022-07-05T01:19:25;3.55;;;0.90;;
49842;SDS011;55559;48.898;9.184;2022-07-05T01:21:53;3.85;;;0.80;;
49842;SDS011;55559;48.898;9.184;2022-07-05T01:24:22;6.55;;;1.00;;
49842;SDS011;55559;48.898;9.184;2022-07-05T01:26:50;6.72;;;0.93;;
49842;SDS011;55559;48.898;9.184;2022-07-05T01:29:19;3.67;;;1.00;;
49842;SDS011;55559;48.898;9.184;2022-07-05T01:31:47;2.60;;;0.77;;
49842;SDS011;55559;48.898;9.184;2022-07-05T01:34:14;3.30;;;0.82;;
49842;SDS011;55559;48.898;9.184;2022-07-05T01:36:41;7.03;;;0.77;;
49842;SDS011;55559;48.898;9.184;2022-07-05T01:39:09;2.55;;;0.88;;
49842;SDS011;55559;48.898;9.184;2022-07-05T01:41:38;4.32;;;0.90;;
49842;SDS011;55559;48.898;9.184;2022-07-05T01:44:06;3.30;;;0.90;;
49842;SDS011;55559;48.898;9.184;2022-07-05T01:46:33;5.13;;;1.27;;
49842;SDS011;55559;48.898;9.184;2022-07-05T01:49:04;5.97;;;0.85;;
49842;SDS011;55559;48.898;9.184;2022-07-05T01:51:37;9.43;;;1.02;;
49842;SDS011;55559;48.898;9.184;2022-07-05T01:54:08;7.10;;;1.15;;
49842;SDS011;55559;48.898;9.184;2022-07-05T01:56:36;1.83;;;0.88;;
49842;SDS011;55559;48.898;9.184;2022-07-05T01:59:06;2.55;;;0.88;;
49842;SDS011;55559;48.898;9.184;2022-07-05T02:01:34;11.10;;;1.35;;
49842;SDS011;55559;48.898;9.184;2022-07-05T02:04:03;5.45;;;0.90;;
49842;SDS011;55559;48.898;9.184;2022-07-05T02:06:31;3.50;;;0.70;;
49842;SDS011;55559;48.898;9.184;2022-07-05T02:09:00;3.15;;;1.30;;
49842;SDS011;55559;48.898;9.184;2022-07-05T02:11:27;6.97;;;1.10;;
49842;SDS011;55559;48.898;9.184;2022-07-05T02:13:56;2.63;;;0.80;;
49842;SDS011;55559;48.898;9.184;2022-07-05T02:16:28;2.40;;;0.93;;
49842;SDS011;55559;48.898;9.184;2022-07-05T02:18:56;1.60;;;0.70;;
49842;SDS011;55559;48.898;9.184;2022-07-05T02:21:25;7.30;;;0.98;;
49842;SDS011;55559;48.898;9.184;2022-07-05T02:23:54;4.03;;;0.90;;
49842;SDS011;55559;48.898;9.184;2022-07-05T02:26:24;3.20;;;0.70;;
49842;SDS011;55559;48.898;9.184;2022-07-05T02:28:53;4.00;;;1.00;;
49842;SDS011;55559;48.898;9.184;2022-07-05T02:31:22;2.67;;;0.90;;
49842;SDS011;55559;48.898;9.184;2022-07-05T02:33:52;8.10;;;1.05;;
49842;SDS011;55559;48.898;9.184;2022-07-05T02:36:22;7.05;;;0.77;;
49842;SDS011;55559;48.898;9.184;2022-07-05T02:38:49;5.93;;;0.93;;
49842;SDS011;55559;48.898;9.184;2022-07-05T02:41:17;2.47;;;1.05;;
49842;SDS011;55559;48.898;9.184;2022-07-05T02:43:47;11.27;;;1.30;;
49842;SDS011;55559;48.898;9.184;2022-07-05T02:46:17;4.03;;;0.80;;
49842;SDS011;55559;48.898;9.184;2022-07-05T02:48:47;4.32;;;0.90;;
49842;SDS011;55559;48.898;9.184;2022-07-05T02:51:14;3.25;;;1.00;;
49842;SDS011;55559;48.898;9.184;2022-07-05T02:53:44;1.98;;;0.90;;
49842;SDS011;55559;48.898;9.184;2022-07-05T02:56:13;9.30;;;1.15;;
49842;SDS011;55559;48.898;9.184;2022-07-05T02:58:40;3.40;;;1.08;;
49842;SDS011;55559;48.898;9.184;2022-07-05T03:01:09;2.28;;;0.93;;
49842;SDS011;55559;48.898;9.184;2022-07-05T03:03:38;5.05;;;1.20;;
49842;SDS011;55559;48.898;9.184;2022-07-05T03:06:09;3.20;;;1.17;;
49842;SDS011;55559;48.898;9.184;2022-07-05T03:08:36;7.43;;;1.02;;
49842;SDS011;55559;48.898;9.184;2022-07-05T03:11:07;5.43;;;1.20;;
49842;SDS011;55559;48.898;9.184;2022-07-05T03:13:36;6.40;;;0.90;;
49842;SDS011;55559;48.898;9.184;2022-07-05T03:16:03;2.88;;;1.00;;
49842;SDS011;55559;48.898;9.184;2022-07-05T03:18:31;12.95;;;1.40;;
49842;SDS011;55559;48.898;9.184;2022-07-05T03:21:00;3.05;;;1.30;;
49842;SDS011;55559;48.898;9.184;2022-07-05T03:23:32;5.15;;;1.15;;
49842;SDS011;55559;48.898;9.184;2022-07-05T03:26:00;2.55;;;0.80;;
49842;SDS011;55559;48.898;9.184;2022-07-05T03:28:29;5.57;;;1.20;;
49842;SDS011;55559;48.898;9.184;2022-07-05T03:30:59;2.35;;;1.00;;
49842;SDS011;55559;48.898;9.184;2022-07-05T03:33:28;2.25;;;0.90;;
49842;SDS011;55559;48.898;9.184;2022-07-05T03:35:58;3.10;;;1.70;;
49842;SDS011;55559;48.898;9.184;2022-07-05T03:38:26;2.85;;;0.85;;
49842;SDS011;55559;48.898;9.184;2022-07-05T03:40:55;3.80;;;1.10;;
49842;SDS011;55559;48.898;9.184;2022-07-05T03:43:25;7.40;;;1.30;;
49842;SDS011;55559;48.898;9.184;2022-07-05T03:45:54;2.92;;;1.30;;
49842;SDS011;55559;48.898;9.184;2022-07-05T03:48:23;2.15;;;1.00;;
49842;SDS011;55559;48.898;9.184;2022-07-05T03:50:51;8.55;;;0.90;;
49842;SDS011;55559;48.898;9.184;2022-07-05T03:53:19;7.05;;;1.60;;
49842;SDS011;55559;48.898;9.184;2022-07-05T03:55:47;5.53;;;1.35;;
49842;SDS011;55559;48.898;9.184;2022-07-05T03:58:15;9.15;;;2.30;;
49842;SDS011;55559;48.898;9.184;2022-07-05T04:00:44;7.82;;;1.40;;
49842;SDS011;55559;48.898;9.184;2022-07-05T04:03:15;5.43;;;1.73;;
49842;SDS011;55559;48.898;9.184;2022-07-05T04:05:44;9.00;;;1.10;;
49842;SDS011;55559;48.898;9.184;2022-07-05T04:08:11;6.90;;;1.98;;
49842;SDS011;55559;48.898;9.184;2022-07-05T04:10:43;8.20;;;1.27;;
49842;SDS011;55559;48.898;9.184;2022-07-05T04:13:13;5.80;;;1.90;;
49842;SDS011;55559;48.898;9.184;2022-07-05T04:15:43;6.53;;;1.50;;
49842;SDS011;55559;48.898;9.184;2022-07-05T04:18:10;11.57;;;1.73;;
49842;SDS011;55559;48.898;9.184;2022-07-05T04:20:40;7.00;;;1.77;;
49842;SDS011;55559;48.898;9.184;2022-07-05T04:23:10;5.57;;;1.48;;
49842;SDS011;55559;48.898;9.184;2022-07-05T04:25:37;2.03;;;1.25;;
49842;SDS011;55559;48.898;9.184;2022-07-05T04:28:14;8.82;;;2.10;;
49842;SDS011;55559;48.898;9.184;2022-07-05T04:30:45;3.60;;;1.17;;
49842;SDS011;55559;48.898;9.184;2022-07-05T04:33:14;5.45;;;1.77;;
49842;SDS011;55559;48.898;9.184;2022-07-05T04:35:44;1.83;;;0.98;;
49842;SDS011;55559;48.898;9.184;2022-07-05T04:38:12;12.40;;;1.10;;
49842;SDS011;55559;48.898;9.184;2022-07-05T04:40:42;9.85;;;1.10;;
49842;SDS011;55559;48.898;9.184;2022-07-05T04:43:09;1.77;;;0.60;;
49842;SDS011;55559;48.898;9.184;2022-07-05T04:45:37;4.53;;;0.88;;
49842;SDS011;55559;48.898;9.184;2022-07-05T04:48:06;3.83;;;0.65;;
49842;SDS011;55559;48.898;9.184;2022-07-05T04:50:35;5.85;;;0.60;;
49842;SDS011;55559;48.898;9.184;2022-07-05T04:53:04;5.90;;;0.70;;
49842;SDS011;55559;48.898;9.184;2022-07-05T04:55:31;2.17;;;0.85;;
49842;SDS011;55559;48.898;9.184;2022-07-05T04:57:59;2.25;;;0.50;;
49842;SDS011;55559;48.898;9.184;2022-07-05T05:00:26;3.90;;;0.60;;
49842;SDS011;55559;48.898;9.184;2022-07-05T05:02:57;5.53;;;0.45;;
49842;SDS011;55559;48.898;9.184;2022-07-05T05:05:27;4.65;;;0.60;;
49842;SDS011;55559;48.898;9.184;2022-07-05T05:07:54;1.40;;;0.45;;
49842;SDS011;55559;48.898;9.184;2022-07-05T05:10:22;4.90;;;0.57;;
49842;SDS011;55559;48.898;9.184;2022-07-05T05:12:49;2.97;;;0.50;;
49842;SDS011;55559;48.898;9.184;2022-07-05T05:15:17;2.03;;;0.43;;
49842;SDS011;55559;48.898;9.184;2022-07-05T05:17:44;9.73;;;0.70;;
49842;SDS011;55559;48.898;9.184;2022-07-05T05:20:11;5.22;;;0.55;;
49842;SDS011;55559;48.898;9.184;2022-07-05T05:22:42;6.47;;;0.43;;
49842;SDS011;55559;48.898;9.184;2022-07-05T05:25:10;5.13;;;0.50;;
49842;SDS011;55559;48.898;9.184;2022-07-05T05:27:42;4.47;;;0.40;;
49842;SDS011;55559;48.898;9.184;2022-07-05T05:30:10;2.78;;;0.30;;
49842;SDS011;55559;48.898;9.184;2022-07-05T05:32:39;3.53;;;0.40;;
49842;SDS011;55559;48.898;9.184;2022-07-05T05:35:06;2.92;;;0.50;;
49842;SDS011;55559;48.898;9.184;2022-07-05T05:37:46;2.90;;;0.40;;
49842;SDS011;55559;48.898;9.184;2022-07-05T05:40:14;7.13;;;0.40;;
49842;SDS011;55559;48.898;9.184;2022-07-05T05:42:42;3.00;;;0.40;;
49842;SDS011;55559;48.898;9.184;2022-07-05T05:45:10;5.60;;;0.40;;
49842;SDS011;55559;48.898;9.184;2022-07-05T05:47:44;5.25;;;0.38;;
49842;SDS011;55559;48.898;9.184;2022-07-05T05:50:13;2.70;;;0.40;;
49842;SDS011;55559;48.898;9.184;2022-07-05T05:52:41;2.60;;;0.32;;
49842;SDS011;55559;48.898;9.184;2022-07-05T05:55:10;4.93;;;0.45;;
49842;SDS011;55559;48.898;9.184;2022-07-05T05:57:38;5.03;;;0.28;;
49842;SDS011;55559;48.898;9.184;2022-07-05T06:00:06;2.15;;;0.30;;
49842;SDS011;55559;48.898;9.184;2022-07-05T06:02:37;1.50;;;0.20;;
49842;SDS011;55559;48.898;9.184;2022-07-05T06:05:05;1.45;;;0.43;;
49842;SDS011;55559;48.898;9.184;2022-07-05T06:07:42;3.42;;;0.50;;
49842;SDS011;55559;48.898;9.184;2022-07-05T06:10:16;2.35;;;0.30;;
49842;SDS011;55559;48.898;9.184;2022-07-05T06:12:44;3.28;;;0.40;;
49842;SDS011;55559;48.898;9.184;2022-07-05T06:15:12;7.45;;;0.40;;
49842;SDS011;55559;48.898;9.184;2022-07-05T06:17:39;2.53;;;0.30;;
49842;SDS011;55559;48.898;9.184;2022-07-05T06:20:08;4.65;;;0.30;;
49842;SDS011;55559;48.898;9.184;2022-07-05T06:22:36;4.38;;;0.30;;
49842;SDS011;55559;48.898;9.184;2022-07-05T06:25:05;8.30;;;0.45;;
49842;SDS011;55559;48.898;9.184;2022-07-05T06:27:38;6.65;;;0.30;;
49842;SDS011;55559;48.898;9.184;2022-07-05T06:32:34;2.80;;;0.30;;
49842;SDS011;55559;48.898;9.184;2022-07-05T06:35:02;7.05;;;0.30;;
49842;SDS011;55559;48.898;9.184;2022-07-05T06:37:39;3.60;;;0.40;;
49842;SDS011;55559;48.898;9.184;2022-07-05T06:40:09;1.15;;;0.30;;
49842;SDS011;55559;48.898;9.184;2022-07-05T06:42:39;2.95;;;0.25;;
49842;SDS011;55559;48.898;9.184;2022-07-05T06:45:08;4.90;;;0.30;;
49842;SDS011;55559;48.898;9.184;2022-07-05T06:47:36;4.28;;;0.50;;
49842;SDS011;55559;48.898;9.184;2022-07-05T06:50:04;3.72;;;0.30;;
49842;SDS011;55559;48.898;9.184;2022-07-05T06:52:32;1.17;;;0.25;;
49842;SDS011;55559;48.898;9.184;2022-07-05T06:55:00;0.80;;;0.20;;
49842;SDS011;55559;48.898;9.184;2022-07-05T06:57:28;4.38;;;0.20;;
49842;SDS011;55559;48.898;9.184;2022-07-05T06:59:58;4.93;;;0.30;;
49842;SDS011;55559;48.898;9.184;2022-07-05T07:02:26;4.13;;;0.40;;
49842;SDS011;55559;48.898;9.184;2022-07-05T07:04:54;2.15;;;0.35;;
49842;SDS011;55559;48.898;9.184;2022-07-05T07:07:22;6.55;;;0.40;;
49842;SDS011;55559;48.898;9.184;2022-07-05T07:10:06;6.20;;;0.17;;
49842;SDS011;55559;48.898;9.184;2022-07-05T07:12:35;3.05;;;0.20;;
49842;SDS011;55559;48.898;9.184;2022-07-05T07:15:04;2.97;;;0.20;;
49842;SDS011;55559;48.898;9.184;2022-07-05T07:17:32;4.93;;;0.28;;
49842;SDS011;55559;48.898;9.184;2022-07-05T07:20:00;3.08;;;0.20;;
49842;SDS011;55559;48.898;9.184;2022-07-05T07:22:27;3.15;;;0.30;;
49842;SDS011;55559;48.898;9.184;2022-07-05T07:24:54;4.13;;;0.30;;
49842;SDS011;55559;48.898;9.184;2022-07-05T07:27:22;2.78;;;0.22;;
49842;SDS011;55559;48.898;9.184;2022-07-05T07:29:49;7.32;;;0.40;;
49842;SDS011;55559;48.898;9.184;2022-07-05T07:32:18;0.73;;;0.20;;
49842;SDS011;55559;48.898;9.184;2022-07-05T07:34:45;2.13;;;0.20;;
49842;SDS011;55559;48.898;9.184;2022-07-05T07:37:12;2.90;;;0.40;;
49842;SDS011;55559;48.898;9.184;2022-07-05T07:39:40;1.00;;;0.20;;
49842;SDS011;55559;48.898;9.184;2022-07-05T07:42:08;0.80;;;0.20;;
49842;SDS011;55559;48.898;9.184;2022-07-05T07:44:35;2.70;;;0.10;;
49842;SDS011;55559;48.898;9.184;2022-07-05T07:47:03;2.40;;;0.10;;
49842;SDS011;55559;48.898;9.184;2022-07-05T07:49:32;1.50;;;0.20;;
49842;SDS011;55559;48.898;9.184;2022-07-05T07:52:02;1.77;;;0.20;;
49842;SDS011;55559;48.898;9.184;2022-07-05T07:54:29;1.40;;;0.20;;
49842;SDS011;55559;48.898;9.184;2022-07-05T07:56:57;1.40;;;0.13;;
49842;SDS011;55559;48.898;9.184;2022-07-05T07:59:25;8.77;;;0.20;;
49842;SDS011;55559;48.898;9.184;2022-07-05T08:01:52;2.42;;;0.20;;
49842;SDS011;55559;48.898;9.184;2022-07-05T08:04:20;0.80;;;0.10;;
49842;SDS011;55559;48.898;9.184;2022-07-05T08:06:48;6.68;;;0.20;;
49842;SDS011;55559;48.898;9.184;2022-07-05T08:09:16;6.15;;;0.10;;
49842;SDS011;55559;48.898;9.184;2022-07-05T08:11:44;0.98;;;0.20;;
49842;SDS011;55559;48.898;9.184;2022-07-05T08:14:12;5.78;;;0.10;;
49842;SDS011;55559;48.898;9.184;2022-07-05T08:16:40;5.00;;;0.20;;
49842;SDS011;55559;48.898;9.184;2022-07-05T08:19:08;4.72;;;0.20;;
49842;SDS011;55559;48.898;9.184;2022-07-05T08:21:54;7.15;;;0.30;;
49842;SDS011;55559;48.898;9.184;2022-07-05T08:24:21;5.50;;;0.20;;
49842;SDS011;55559;48.898;9.184;2022-07-05T08:26:49;6.75;;;0.25;;
49842;SDS011;55559;48.898;9.184;2022-07-05T08:29:16;6.63;;;0.20;;
49842;SDS011;55559;48.898;9.184;2022-07-05T08:31:46;8.60;;;0.20;;
49842;SDS011;55559;48.898;9.184;2022-07-05T08:34:15;2.47;;;0.32;;
49842;SDS011;55559;48.898;9.184;2022-07-05T08:36:44;4.25;;;0.30;;
49842;SDS011;55559;48.898;9.184;2022-07-05T08:39:14;1.92;;;0.20;;
49842;SDS011;55559;48.898;9.184;2022-07-05T08:41:42;5.95;;;0.40;;
49842;SDS011;55559;48.898;9.184;2022-07-05T08:44:12;10.32;;;0.20;;
49842;SDS011;55559;48.898;9.184;2022-07-05T08:46:43;3.40;;;0.20;;
49842;SDS011;55559;48.898;9.184;2022-07-05T08:49:13;9.40;;;0.35;;
49842;SDS011;55559;48.898;9.184;2022-07-05T08:51:41;0.43;;;0.10;;
49842;SDS011;55559;48.898;9.184;2022-07-05T08:54:10;3.22;;;0.30;;
49842;SDS011;55559;48.898;9.184;2022-07-05T08:56:41;10.07;;;0.50;;
49842;SDS011;55559;48.898;9.184;2022-07-05T08:59:09;3.13;;;0.10;;
49842;SDS011;55559;48.898;9.184;2022-07-05T09:01:37;1.05;;;0.20;;
49842;SDS011;55559;48.898;9.184;2022-07-05T09:04:06;3.08;;;0.20;;
49842;SDS011;55559;48.898;9.184;2022-07-05T09:06:36;4.68;;;0.30;;
49842;SDS011;55559;48.898;9.184;2022-07-05T09:09:06;3.05;;;0.30;;
49842;SDS011;55559;48.898;9.184;2022-07-05T09:11:35;2.63;;;0.15;;
49842;SDS011;55559;48.898;9.184;2022-07-05T09:14:06;2.70;;;0.20;;
49842;SDS011;55559;48.898;9.184;2022-07-05T09:16:44;1.42;;;0.20;;
49842;SDS011;55559;48.898;9.184;2022-07-05T09:19:11;1.10;;;0.20;;
49842;SDS011;55559;48.898;9.184;2022-07-05T09:21:39;1.17;;;0.10;;
49842;SDS011;55559;48.898;9.184;2022-07-05T09:24:07;6.85;;;0.13;;
49842;SDS011;55559;48.898;9.184;2022-07-05T09:26:37;0.95;;;0.13;;
49842;SDS011;55559;48.898;9.184;2022-07-05T09:29:07;1.05;;;0.10;;
49842;SDS011;55559;48.898;9.184;2022-07-05T09:31:36;1.67;;;0.20;;
49842;SDS011;55559;48.898;9.184;2022-07-05T09:34:04;5.80;;;1.65;;
49842;SDS011;55559;48.898;9.184;2022-07-05T09:39:18;3.08;;;0.10;;
49842;SDS011;55559;48.898;9.184;2022-07-05T09:42:09;1.70;;;0.20;;
49842;SDS011;55559;48.898;9.184;2022-07-05T09:44:45;0.88;;;0.15;;
49842;SDS011;55559;48.898;9.184;2022-07-05T09:47:14;1.17;;;0.10;;
49842;SDS011;55559;48.898;9.184;2022-07-05T09:49:43;2.00;;;0.10;;
49842;SDS011;55559;48.898;9.184;2022-07-05T09:52:11;5.63;;;0.10;;
49842;SDS011;55559;48.898;9.184;2022-07-05T09:55:02;2.90;;;0.10;;
49842;SDS011;55559;48.898;9.184;2022-07-05T09:57:32;2.00;;;0.17;;
49842;SDS011;55559;48.898;9.184;2022-07-05T10:00:03;3.70;;;0.30;;
49842;SDS011;55559;48.898;9.184;2022-07-05T10:02:35;2.40;;;0.20;;
49842;SDS011;55559;48.898;9.184;2022-07-05T10:05:07;0.70;;;0.13;;
49842;SDS011;55559;48.898;9.184;2022-07-05T10:07:36;4.28;;;0.10;;
49842;SDS011;55559;48.898;9.184;2022-07-05T10:10:07;0.22;;;0.00;;
49842;SDS011;55559;48.898;9.184;2022-07-05T10:12:35;2.17;;;0.35;;
49842;SDS011;55559;48.898;9.184;2022-07-05T10:15:06;3.70;;;0.10;;
49842;SDS011;55559;48.898;9.184;2022-07-05T10:17:36;0.97;;;0.10;;
49842;SDS011;55559;48.898;9.184;2022-07-05T10:20:11;1.40;;;0.10;;
49842;SDS011;55559;48.898;9.184;2022-07-05T10:22:43;4.00;;;0.10;;
49842;SDS011;55559;48.898;9.184;2022-07-05T10:25:11;2.60;;;0.20;;
49842;SDS011;55559;48.898;9.184;2022-07-05T10:27:39;1.15;;;0.10;;
49842;SDS011;55559;48.898;9.184;2022-07-05T10:30:09;0.70;;;0.10;;
49842;SDS011;55559;48.898;9.184;2022-07-05T10:32:38;3.20;;;0.10;;
49842;SDS011;55559;48.898;9.184;2022-07-05T10:35:07;4.25;;;0.20;;
49842;SDS011;55559;48.898;9.184;2022-07-05T10:37:34;1.75;;;0.10;;
49842;SDS011;55559;48.898;9.184;2022-07-05T10:40:03;0.65;;;0.10;;
49842;SDS011;55559;48.898;9.184;2022-07-05T10:42:34;1.33;;;0.10;;
49842;SDS011;55559;48.898;9.184;2022-07-05T10:48:12;1.67;;;0.45;;
49842;SDS011;55559;48.898;9.184;2022-07-05T10:50:46;1.98;;;0.10;;
49842;SDS011;55559;48.898;9.184;2022-07-05T10:53:19;2.38;;;0.20;;
49842;SDS011;55559;48.898;9.184;2022-07-05T10:55:48;1.58;;;0.20;;
49842;SDS011;55559;48.898;9.184;2022-07-05T10:58:23;3.88;;;0.10;;
49842;SDS011;55559;48.898;9.184;2022-07-05T11:04:15;5.50;;;0.10;;
49842;SDS011;55559;48.898;9.184;2022-07-05T11:06:55;2.78;;;0.10;;
49842;SDS011;55559;48.898;9.184;2022-07-05T11:09:23;4.22;;;0.20;;
49842;SDS011;55559;48.898;9.184;2022-07-05T11:12:04;3.40;;;0.10;;
49842;SDS011;55559;48.898;9.184;2022-07-05T11:14:34;0.47;;;0.10;;
49842;SDS011;55559;48.898;9.184;2022-07-05T11:19:59;0.93;;;0.10;;
49842;SDS011;55559;48.898;9.184;2022-07-05T11:22:38;1.33;;;0.20;;
49842;SDS011;55559;48.898;9.184;2022-07-05T11:25:11;3.72;;;0.15;;
49842;SDS011;55559;48.898;9.184;2022-07-05T11:30:28;2.38;;;0.10;;
49842;SDS011;55559;48.898;9.184;2022-07-05T11:32:58;0.80;;;0.10;;
49842;SDS011;55559;48.898;9.184;2022-07-05T11:35:30;1.33;;;0.10;;
49842;SDS011;55559;48.898;9.184;2022-07-05T11:38:01;0.73;;;0.10;;
49842;SDS011;55559;48.898;9.184;2022-07-05T11:40:32;0.65;;;0.10;;
49842;SDS011;55559;48.898;9.184;2022-07-05T11:43:01;2.58;;;0.20;;
49842;SDS011;55559;48.898;9.184;2022-07-05T11:45:30;3.72;;;0.17;;
49842;SDS011;55559;48.898;9.184;2022-07-05T11:47:59;1.55;;;0.20;;
49842;SDS011;55559;48.898;9.184;2022-07-05T11:50:29;0.43;;;0.10;;
49842;SDS011;55559;48.898;9.184;2022-07-05T11:52:58;1.98;;;0.00;;
49842;SDS011;55559;48.898;9.184;2022-07-05T11:55:26;3.10;;;0.25;;
49842;SDS011;55559;48.898;9.184;2022-07-05T11:57:55;2.67;;;0.10;;
49842;SDS011;55559;48.898;9.184;2022-07-05T12:00:27;1.00;;;0.10;;
49842;SDS011;55559;48.898;9.184;2022-07-05T12:02:55;2.42;;;0.20;;
49842;SDS011;55559;48.898;9.184;2022-07-05T12:05:28;7.35;;;0.30;;
49842;SDS011;55559;48.898;9.184;2022-07-05T12:07:56;3.78;;;0.10;;
49842;SDS011;55559;48.898;9.184;2022-07-05T12:10:24;1.42;;;0.13;;
49842;SDS011;55559;48.898;9.184;2022-07-05T12:13:09;0.77;;;0.17;;
49842;SDS011;55559;48.898;9.184;2022-07-05T12:15:37;6.50;;;0.10;;
49842;SDS011;55559;48.898;9.184;2022-07-05T12:18:06;2.08;;;0.20;;
49842;SDS011;55559;48.898;9.184;2022-07-05T12:20:36;1.25;;;0.10;;
49842;SDS011;55559;48.898;9.184;2022-07-05T12:23:05;2.10;;;0.17;;
49842;SDS011;55559;48.898;9.184;2022-07-05T12:25:33;3.30;;;0.10;;
49842;SDS011;55559;48.898;9.184;2022-07-05T12:28:01;2.95;;;0.20;;
49842;SDS011;55559;48.898;9.184;2022-07-05T12:30:32;2.00;;;0.15;;
49842;SDS011;55559;48.898;9.184;2022-07-05T12:33:01;2.67;;;0.13;;
49842;SDS011;55559;48.898;9.184;2022-07-05T12:35:30;0.90;;;0.10;;
49842;SDS011;55559;48.898;9.184;2022-07-05T12:38:08;0.90;;;0.10;;
49842;SDS011;55559;48.898;9.184;2022-07-05T12:40:36;4.65;;;0.20;;
49842;SDS011;55559;48.898;9.184;2022-07-05T12:43:06;3.05;;;0.20;;
49842;SDS011;55559;48.898;9.184;2022-07-05T12:45:34;3.17;;;0.20;;
49842;SDS011;55559;48.898;9.184;2022-07-05T12:48:03;2.80;;;0.28;;
49842;SDS011;55559;48.898;9.184;2022-07-05T12:50:45;1.40;;;0.20;;
49842;SDS011;55559;48.898;9.184;2022-07-05T12:53:17;2.55;;;0.10;;
49842;SDS011;55559;48.898;9.184;2022-07-05T12:56:02;6.75;;;0.22;;
49842;SDS011;55559;48.898;9.184;2022-07-05T12:58:50;1.00;;;0.20;;
49842;SDS011;55559;48.898;9.184;2022-07-05T13:01:19;1.75;;;0.20;;
49842;SDS011;55559;48.898;9.184;2022-07-05T13:03:55;3.80;;;0.40;;
49842;SDS011;55559;48.898;9.184;2022-07-05T13:06:42;0.50;;;0.10;;
49842;SDS011;55559;48.898;9.184;2022-07-05T13:09:13;1.58;;;0.20;;
49842;SDS011;55559;48.898;9.184;2022-07-05T13:11:42;2.95;;;0.20;;
49842;SDS011;55559;48.898;9.184;2022-07-05T13:14:10;4.32;;;0.20;;
49842;SDS011;55559;48.898;9.184;2022-07-05T13:16:38;1.63;;;0.20;;
49842;SDS011;55559;48.898;9.184;2022-07-05T13:19:05;0.28;;;0.10;;
49842;SDS011;55559;48.898;9.184;2022-07-05T13:21:34;2.35;;;0.10;;
49842;SDS011;55559;48.898;9.184;2022-07-05T13:24:02;4.43;;;0.30;;
49842;SDS011;55559;48.898;9.184;2022-07-05T13:26:32;0.30;;;0.10;;
49842;SDS011;55559;48.898;9.184;2022-07-05T13:28:59;5.22;;;0.13;;
49842;SDS011;55559;48.898;9.184;2022-07-05T13:31:27;8.00;;;0.30;;
49842;SDS011;55559;48.898;9.184;2022-07-05T13:33:57;5.55;;;0.40;;
49842;SDS011;55559;48.898;9.184;2022-07-05T13:36:26;3.70;;;0.10;;
49842;SDS011;55559;48.898;9.184;2022-07-05T13:38:54;3.22;;;0.10;;
49842;SDS011;55559;48.898;9.184;2022-07-05T13:41:21;6.53;;;0.20;;
49842;SDS011;55559;48.898;9.184;2022-07-05T13:43:50;5.80;;;0.20;;
49842;SDS011;55559;48.898;9.184;2022-07-05T13:46:17;1.73;;;0.20;;
49842;SDS011;55559;48.898;9.184;2022-07-05T13:48:45;3.75;;;0.20;;
49842;SDS011;55559;48.898;9.184;2022-07-05T13:51:12;2.40;;;0.20;;
49842;SDS011;55559;48.898;9.184;2022-07-05T13:53:40;3.55;;;0.13;;
49842;SDS011;55559;48.898;9.184;2022-07-05T13:56:07;6.68;;;0.20;;
49842;SDS011;55559;48.898;9.184;2022-07-05T13:58:35;1.75;;;0.10;;
49842;SDS011;55559;48.898;9.184;2022-07-05T14:01:04;1.30;;;0.10;;
49842;SDS011;55559;48.898;9.184;2022-07-05T14:03:31;1.10;;;0.10;;
49842;SDS011;55559;48.898;9.184;2022-07-05T14:05:58;1.13;;;0.13;;
49842;SDS011;55559;48.898;9.184;2022-07-05T14:08:26;7.38;;;0.20;;
49842;SDS011;55559;48.898;9.184;2022-07-05T14:10:54;2.28;;;0.10;;
49842;SDS011;55559;48.898;9.184;2022-07-05T14:13:24;3.17;;;0.10;;
49842;SDS011;55559;48.898;9.184;2022-07-05T14:15:52;1.45;;;0.20;;
49842;SDS011;55559;48.898;9.184;2022-07-05T14:18:21;3.53;;;0.10;;
49842;SDS011;55559;48.898;9.184;2022-07-05T14:20:50;0.95;;;0.20;;
49842;SDS011;55559;48.898;9.184;2022-07-05T14:23:18;0.80;;;0.10;;
49842;SDS011;55559;48.898;9.184;2022-07-05T14:25:46;1.15;;;0.10;;
49842;SDS011;55559;48.898;9.184;2022-07-05T14:28:14;2.20;;;0.17;;
49842;SDS011;55559;48.898;9.184;2022-07-05T14:30:42;1.70;;;0.20;;
49842;SDS011;55559;48.898;9.184;2022-07-05T14:33:11;11.93;;;0.20;;
49842;SDS011;55559;48.898;9.184;2022-07-05T14:35:41;1.10;;;0.10;;
49842;SDS011;55559;48.898;9.184;2022-07-05T14:38:09;4.15;;;0.15;;
49842;SDS011;55559;48.898;9.184;2022-07-05T14:40:36;3.75;;;0.20;;
49842;SDS011;55559;48.898;9.184;2022-07-05T14:43:04;0.52;;;0.10;;
49842;SDS011;55559;48.898;9.184;2022-07-05T14:45:31;3.20;;;0.43;;
49842;SDS011;55559;48.898;9.184;2022-07-05T14:47:59;2.03;;;0.20;;
49842;SDS011;55559;48.898;9.184;2022-07-05T14:50:26;3.53;;;0.15;;
49842;SDS011;55559;48.898;9.184;2022-07-05T14:52:55;2.15;;;0.10;;
49842;SDS011;55559;48.898;9.184;2022-07-05T14:55:23;4.68;;;0.13;;
49842;SDS011;55559;48.898;9.184;2022-07-05T14:57:50;0.88;;;0.10;;
49842;SDS011;55559;48.898;9.184;2022-07-05T15:00:18;3.15;;;0.40;;
49842;SDS011;55559;48.898;9.184;2022-07-05T15:02:45;1.92;;;0.20;;
49842;SDS011;55559;48.898;9.184;2022-07-05T15:05:13;1.88;;;0.17;;
49842;SDS011;55559;48.898;9.184;2022-07-05T15:07:40;2.00;;;0.20;;
49842;SDS011;55559;48.898;9.184;2022-07-05T15:10:09;4.28;;;0.20;;
49842;SDS011;55559;48.898;9.184;2022-07-05T15:12:37;2.20;;;0.20;;
49842;SDS011;55559;48.898;9.184;2022-07-05T15:15:05;0.82;;;0.15;;
49842;SDS011;55559;48.898;9.184;2022-07-05T15:17:33;2.40;;;0.10;;